Time;durP1;ratioP1;P1;durP2;ratioP2;P2;SDS_P1;SDS_P2;PMS_P1;PMS_P2;Temp;Humidity;BMP_temperature;BMP_pressure;BME280_temperature;BME280_humidity;BME280_pressure;Samples;Min_cycle;Max_cycle;Signal;HPM_P1;HPM_P2
2021/04/06 00:01:23;;;;;;;1.73;1.50;;;22.70;27.80;;;;;;5028898;28;20217;-57
2021/04/06 00:03:49;;;;;;;1.70;1.60;;;22.80;27.90;;;;;;5029613;28;20276;-57
2021/04/06 00:06:14;;;;;;;1.43;1.33;;;22.80;27.90;;;;;;5030617;28;20206;-57
2021/04/06 00:08:40;;;;;;;1.47;1.37;;;22.80;27.90;;;;;;5023815;28;20199;-55
2021/04/06 00:11:06;;;;;;;1.93;1.60;;;22.80;27.90;;;;;;5010959;28;20248;-59
2021/04/06 00:13:32;;;;;;;1.60;1.50;;;22.70;28.30;;;;;;5029717;28;20226;-55
2021/04/06 00:15:58;;;;;;;2.60;1.57;;;22.80;27.90;;;;;;5030939;28;20205;-56
2021/04/06 00:18:24;;;;;;;1.60;1.50;;;22.80;27.90;;;;;;5029355;28;20210;-55
2021/04/06 00:20:50;;;;;;;2.73;1.53;;;22.80;27.90;;;;;;5029908;28;20198;-57
2021/04/06 00:23:16;;;;;;;1.47;1.37;;;22.80;27.90;;;;;;5027205;28;20225;-55
2021/04/06 00:25:42;;;;;;;1.60;1.50;;;22.80;27.90;;;;;;5029169;28;20198;-56
2021/04/06 00:28:08;;;;;;;1.73;1.50;;;22.70;27.80;;;;;;5030881;28;20210;-57
2021/04/06 00:30:34;;;;;;;1.40;1.30;;;22.70;27.90;;;;;;5028946;28;20686;-57
2021/04/06 00:33:00;;;;;;;1.60;1.47;;;22.70;27.80;;;;;;5029585;28;20199;-57
2021/04/06 00:35:26;;;;;;;1.67;1.50;;;22.70;27.80;;;;;;5029311;28;20229;-57
2021/04/06 00:37:52;;;;;;;1.40;1.30;;;22.70;27.80;;;;;;5032538;28;20328;-57
2021/04/06 00:40:18;;;;;;;1.90;1.37;;;22.70;27.80;;;;;;5031948;28;20224;-57
2021/04/06 00:42:44;;;;;;;1.60;1.50;;;22.70;28.00;;;;;;5032765;28;20655;-58
2021/04/06 00:45:10;;;;;;;1.35;1.30;;;22.70;27.90;;;;;;5022196;28;20630;-57
2021/04/06 00:47:36;;;;;;;1.50;1.40;;;22.70;27.80;;;;;;5034494;28;20217;-57
2021/04/06 00:50:02;;;;;;;1.65;1.45;;;22.70;27.80;;;;;;5032920;28;20210;-57
2021/04/06 00:52:27;;;;;;;1.47;1.37;;;22.70;27.80;;;;;;5033083;28;20206;-58
2021/04/06 00:54:53;;;;;;;1.50;1.40;;;22.70;27.90;;;;;;5033355;28;20748;-58
2021/04/06 00:57:19;;;;;;;1.40;1.30;;;22.70;27.80;;;;;;5031999;28;20205;-59
2021/04/06 00:59:46;;;;;;;1.67;1.40;;;22.70;27.80;;;;;;5028258;28;20202;-56
2021/04/06 01:02:12;;;;;;;2.30;1.37;;;22.70;27.80;;;;;;5027143;28;20256;-55
2021/04/06 01:04:38;;;;;;;1.70;1.60;;;22.70;27.90;;;;;;5032442;28;20713;-56
2021/04/06 01:07:04;;;;;;;1.40;1.30;;;22.70;27.80;;;;;;5032762;28;20202;-56
2021/04/06 01:09:30;;;;;;;1.50;1.40;;;22.70;27.90;;;;;;5033298;28;20674;-56
2021/04/06 01:11:55;;;;;;;1.80;1.50;;;22.70;27.80;;;;;;5032115;28;20241;-59
2021/04/06 01:14:21;;;;;;;1.60;1.50;;;22.70;27.80;;;;;;5031137;28;20234;-58
2021/04/06 01:16:47;;;;;;;1.87;1.60;;;22.70;27.80;;;;;;5032470;28;20210;-58
2021/04/06 01:19:13;;;;;;;1.93;1.30;;;22.70;27.80;;;;;;5028884;28;20204;-54
2021/04/06 01:21:39;;;;;;;1.60;1.47;;;22.70;27.90;;;;;;5032501;28;20661;-54
2021/04/06 01:24:05;;;;;;;1.60;1.50;;;22.70;27.80;;;;;;5032119;28;20230;-54
2021/04/06 01:26:31;;;;;;;2.23;1.50;;;22.70;27.80;;;;;;5031157;28;20212;-57
2021/04/06 01:28:57;;;;;;;1.50;1.30;;;22.70;27.80;;;;;;5032447;28;20221;-56
2021/04/06 01:31:23;;;;;;;1.40;1.30;;;22.70;27.90;;;;;;5032616;28;20629;-56
2021/04/06 01:33:49;;;;;;;1.30;1.20;;;22.70;27.80;;;;;;5031358;28;20226;-56
2021/04/06 01:36:15;;;;;;;1.37;1.27;;;22.70;27.80;;;;;;5032870;28;20194;-55
2021/04/06 01:38:41;;;;;;;1.93;1.33;;;22.70;27.80;;;;;;5032139;28;20209;-56
2021/04/06 01:41:07;;;;;;;1.30;1.20;;;22.70;27.90;;;;;;5031738;28;20203;-56
2021/04/06 01:43:34;;;;;;;3.20;1.20;;;22.70;27.80;;;;;;5030887;28;20256;-59
2021/04/06 01:46:01;;;;;;;1.73;1.40;;;22.70;27.80;;;;;;5031060;28;20255;-57
2021/04/06 01:48:27;;;;;;;1.57;1.40;;;22.70;27.80;;;;;;5022603;28;20203;-55
2021/04/06 01:50:53;;;;;;;2.00;1.30;;;22.70;27.80;;;;;;5031093;28;20256;-57
2021/04/06 01:53:19;;;;;;;1.47;1.27;;;22.70;27.90;;;;;;5033051;28;20234;-56
2021/04/06 01:55:45;;;;;;;1.40;1.30;;;22.70;27.80;;;;;;5032269;28;20210;-52
2021/04/06 01:58:11;;;;;;;1.60;1.33;;;22.70;27.80;;;;;;5033411;28;20216;-56
2021/04/06 02:00:47;;;;;;;1.20;1.10;;;22.70;27.80;;;;;;5030925;28;20202;-53
2021/04/06 02:03:13;;;;;;;1.27;1.17;;;22.70;27.80;;;;;;5032973;28;20728;-56
2021/04/06 02:05:42;;;;;;;1.53;1.40;;;22.70;27.80;;;;;;5031013;28;20206;-56
2021/04/06 02:08:10;;;;;;;1.37;1.20;;;22.70;27.80;;;;;;5033136;28;20308;-57
2021/04/06 02:10:36;;;;;;;1.30;1.20;;;22.70;27.80;;;;;;5031311;28;20916;-54
2021/04/06 02:13:02;;;;;;;1.40;1.30;;;22.70;27.80;;;;;;5021591;28;20239;-57
2021/04/06 02:15:28;;;;;;;2.37;1.30;;;22.70;27.90;;;;;;5031575;28;20252;-55
2021/04/06 02:17:54;;;;;;;1.87;1.40;;;22.70;27.90;;;;;;5032457;28;20589;-57
2021/04/06 02:20:20;;;;;;;1.70;1.37;;;22.70;27.90;;;;;;5029806;28;20214;-57
2021/04/06 02:22:46;;;;;;;3.10;1.40;;;22.70;27.90;;;;;;5032535;28;20212;-55
2021/04/06 02:25:12;;;;;;;1.40;1.30;;;22.70;27.90;;;;;;5031336;28;20210;-57
2021/04/06 02:27:38;;;;;;;1.20;1.10;;;22.70;28.00;;;;;;5030929;28;20202;-55
2021/04/06 02:30:04;;;;;;;1.77;1.17;;;22.70;27.90;;;;;;5031279;28;20210;-57
2021/04/06 02:32:30;;;;;;;1.37;1.20;;;22.70;28.00;;;;;;5029339;28;20695;-57
2021/04/06 02:34:56;;;;;;;1.50;1.40;;;22.70;28.10;;;;;;5029938;28;20388;-57
2021/04/06 02:37:22;;;;;;;1.80;1.30;;;22.70;28.10;;;;;;5031241;28;20225;-56
2021/04/06 02:39:48;;;;;;;1.40;1.30;;;22.70;28.10;;;;;;5029827;28;20202;-57
2021/04/06 02:42:13;;;;;;;2.37;1.47;;;22.70;28.10;;;;;;5031754;28;20212;-58
2021/04/06 02:44:39;;;;;;;1.57;1.27;;;22.70;28.10;;;;;;5030993;28;20221;-55
2021/04/06 02:47:05;;;;;;;2.67;1.37;;;22.70;28.10;;;;;;5030389;28;20213;-54
2021/04/06 02:49:31;;;;;;;1.50;1.40;;;22.70;28.20;;;;;;5030723;28;20201;-55
2021/04/06 02:51:57;;;;;;;1.53;1.43;;;22.70;28.10;;;;;;5029790;28;20230;-57
2021/04/06 02:54:23;;;;;;;1.47;1.20;;;22.70;28.20;;;;;;5031170;28;20225;-55
2021/04/06 02:56:49;;;;;;;1.67;1.20;;;22.70;28.30;;;;;;5030979;28;20209;-56
2021/04/06 02:59:15;;;;;;;1.80;1.10;;;22.70;28.20;;;;;;5030412;28;20217;-55
2021/04/06 03:01:41;;;;;;;2.00;1.07;;;22.70;28.30;;;;;;5029776;28;20198;-55
2021/04/06 03:04:07;;;;;;;1.77;1.20;;;22.70;28.90;;;;;;5031311;28;20609;-54
2021/04/06 03:06:33;;;;;;;1.20;1.10;;;22.70;28.20;;;;;;5030663;28;20205;-56
2021/04/06 03:08:59;;;;;;;1.20;1.10;;;22.70;28.30;;;;;;5029641;28;20209;-56
2021/04/06 03:11:25;;;;;;;1.53;1.30;;;22.70;28.30;;;;;;5031171;28;20225;-57
2021/04/06 03:13:51;;;;;;;1.40;1.30;;;22.70;28.20;;;;;;5029817;28;20232;-57
2021/04/06 03:16:17;;;;;;;1.60;1.50;;;22.70;28.20;;;;;;5030466;28;20212;-54
2021/04/06 03:18:43;;;;;;;2.20;1.30;;;22.70;28.10;;;;;;5030614;28;20903;-56
2021/04/06 03:21:09;;;;;;;1.50;1.40;;;22.70;28.10;;;;;;5030934;28;20205;-56
2021/04/06 03:23:35;;;;;;;1.90;1.27;;;22.70;28.30;;;;;;5029961;28;20284;-53
2021/04/06 03:26:01;;;;;;;1.60;1.30;;;22.70;28.30;;;;;;5030585;28;20195;-56
2021/04/06 03:28:27;;;;;;;1.20;1.10;;;22.70;28.10;;;;;;5029361;28;20317;-56
2021/04/06 03:30:53;;;;;;;1.37;1.17;;;22.70;28.20;;;;;;5029520;28;20619;-56
2021/04/06 03:33:18;;;;;;;2.43;1.10;;;22.70;28.20;;;;;;5030554;28;20233;-57
2021/04/06 03:35:44;;;;;;;1.57;1.23;;;22.70;28.20;;;;;;5030246;28;20267;-55
2021/04/06 03:38:10;;;;;;;1.90;1.23;;;22.70;28.20;;;;;;5030258;28;20198;-57
2021/04/06 03:40:36;;;;;;;2.23;1.70;;;22.70;28.00;;;;;;5029225;28;20913;-56
2021/04/06 03:43:02;;;;;;;1.17;1.07;;;22.70;28.10;;;;;;5031328;28;20245;-57
2021/04/06 03:45:28;;;;;;;1.23;1.20;;;22.70;28.10;;;;;;5029787;28;20201;-57
2021/04/06 03:47:54;;;;;;;1.20;1.20;;;22.70;28.50;;;;;;5025522;28;20643;-56
2021/04/06 03:50:20;;;;;;;1.33;1.23;;;22.70;28.30;;;;;;5030500;28;20328;-56
2021/04/06 03:52:46;;;;;;;1.10;1.10;;;22.70;28.40;;;;;;5029294;28;20222;-56
2021/04/06 03:55:12;;;;;;;1.80;1.27;;;22.70;28.30;;;;;;5031294;28;20205;-55
2021/04/06 03:57:45;;;;;;;1.40;1.30;;;22.70;28.30;;;;;;5029602;28;20209;-57
2021/04/06 04:00:11;;;;;;;1.30;1.20;;;22.70;28.30;;;;;;5029342;28;20209;-57
2021/04/06 04:02:37;;;;;;;1.30;1.20;;;22.70;28.30;;;;;;5025214;28;20225;-56
2021/04/06 04:05:03;;;;;;;1.10;1.10;;;22.70;28.20;;;;;;5020803;28;20217;-56
2021/04/06 04:07:29;;;;;;;1.37;1.23;;;22.70;28.20;;;;;;5029671;28;20202;-55
2021/04/06 04:09:55;;;;;;;1.30;1.13;;;22.70;28.10;;;;;;5029958;28;20209;-57
2021/04/06 04:12:21;;;;;;;1.23;1.13;;;22.70;28.10;;;;;;5029276;28;20576;-57
2021/04/06 04:14:47;;;;;;;1.40;1.13;;;22.70;28.00;;;;;;5031427;28;20213;-56
2021/04/06 04:17:13;;;;;;;1.73;1.10;;;22.70;28.00;;;;;;5029241;28;20216;-56
2021/04/06 04:19:39;;;;;;;1.20;1.07;;;22.70;27.90;;;;;;5030323;28;20204;-57
2021/04/06 04:22:05;;;;;;;1.20;1.10;;;22.70;27.80;;;;;;5029064;28;20226;-56
2021/04/06 04:24:30;;;;;;;1.40;1.10;;;22.70;27.90;;;;;;5030712;28;20563;-54
2021/04/06 04:26:56;;;;;;;1.93;1.27;;;22.70;28.20;;;;;;5029355;28;20205;-53
2021/04/06 04:29:22;;;;;;;1.20;1.10;;;22.70;28.40;;;;;;5027798;28;20210;-54
2021/04/06 04:31:50;;;;;;;1.63;1.17;;;22.70;28.30;;;;;;5029793;28;20234;-54
2021/04/06 04:34:16;;;;;;;2.37;1.10;;;22.70;28.50;;;;;;5029172;28;20229;-55
2021/04/06 04:36:42;;;;;;;4.53;1.20;;;22.70;28.60;;;;;;5027737;28;20202;-53
2021/04/06 04:39:08;;;;;;;2.47;1.20;;;22.70;28.50;;;;;;5029519;28;20209;-55
2021/04/06 04:41:34;;;;;;;3.90;1.33;;;22.70;28.50;;;;;;5029479;28;20195;-50
2021/04/06 04:44:00;;;;;;;1.40;1.30;;;22.70;28.60;;;;;;5028837;28;20709;-58
2021/04/06 04:46:28;;;;;;;2.37;1.10;;;22.70;28.70;;;;;;5028799;28;20213;-54
2021/04/06 04:48:54;;;;;;;3.37;1.10;;;22.70;28.80;;;;;;5016785;28;20263;-50
2021/04/06 04:51:20;;;;;;;2.57;1.30;;;22.70;28.90;;;;;;5017822;28;20698;-53
2021/04/06 04:53:46;;;;;;;1.77;1.27;;;22.70;28.90;;;;;;5030405;28;20225;-55
2021/04/06 04:56:12;;;;;;;2.47;1.43;;;22.70;28.80;;;;;;5029399;28;20202;-52
2021/04/06 04:58:38;;;;;;;1.80;1.20;;;22.70;28.80;;;;;;5029162;28;20235;-54
2021/04/06 05:01:04;;;;;;;2.50;1.10;;;22.60;28.70;;;;;;5028414;28;20206;-54
2021/04/06 05:03:30;;;;;;;1.60;1.30;;;22.70;28.70;;;;;;5030141;28;20284;-52
2021/04/06 05:05:55;;;;;;;1.50;1.17;;;22.70;28.50;;;;;;5028012;28;20210;-54
2021/04/06 05:08:21;;;;;;;2.10;1.17;;;22.60;28.50;;;;;;5028235;28;20205;-54
2021/04/06 05:10:48;;;;;;;2.10;1.10;;;22.60;28.30;;;;;;5027866;28;20568;-56
2021/04/06 05:13:14;;;;;;;1.73;1.10;;;22.70;28.30;;;;;;5030108;28;20290;-54
2021/04/06 05:15:40;;;;;;;1.53;1.10;;;22.70;28.30;;;;;;5028221;28;20199;-51
2021/04/06 05:18:06;;;;;;;1.40;1.23;;;22.70;28.20;;;;;;5029435;28;20209;-54
2021/04/06 05:20:32;;;;;;;2.03;1.10;;;22.70;28.30;;;;;;5029268;28;20579;-53
2021/04/06 05:22:58;;;;;;;1.77;1.07;;;22.70;28.20;;;;;;5030805;28;20235;-54
2021/04/06 05:25:24;;;;;;;2.50;1.20;;;22.70;28.20;;;;;;5033972;28;20206;-52
2021/04/06 05:27:49;;;;;;;1.70;1.00;;;22.70;28.20;;;;;;5031934;28;20663;-53
2021/04/06 05:30:15;;;;;;;1.30;1.20;;;22.70;28.10;;;;;;5030758;28;20356;-58
2021/04/06 05:32:41;;;;;;;1.37;1.10;;;22.70;28.10;;;;;;5032430;28;20233;-54
2021/04/06 05:35:07;;;;;;;1.50;1.27;;;22.70;28.00;;;;;;5032779;28;20209;-56
2021/04/06 05:37:33;;;;;;;2.80;1.43;;;22.70;28.00;;;;;;5033650;28;20567;-53
2021/04/06 05:39:59;;;;;;;1.97;1.10;;;22.70;28.60;;;;;;5031345;28;20212;-56
2021/04/06 05:42:25;;;;;;;1.30;1.20;;;22.70;28.30;;;;;;5033112;28;20230;-55
2021/04/06 05:44:51;;;;;;;1.50;1.10;;;22.70;28.30;;;;;;5031621;28;20197;-55
2021/04/06 05:47:17;;;;;;;1.13;1.03;;;22.70;28.30;;;;;;5027059;28;20206;-56
2021/04/06 05:49:43;;;;;;;2.20;1.20;;;22.70;28.30;;;;;;5031658;28;20209;-50
2021/04/06 05:52:09;;;;;;;2.07;1.20;;;22.70;28.20;;;;;;5033189;28;20287;-56
2021/04/06 05:54:35;;;;;;;1.67;1.30;;;22.70;28.20;;;;;;5032081;28;20202;-55
2021/04/06 05:57:01;;;;;;;2.47;1.10;;;22.70;28.10;;;;;;5031765;28;20209;-54
2021/04/06 05:59:27;;;;;;;1.47;1.07;;;22.70;28.10;;;;;;5032558;28;20198;-57
2021/04/06 06:01:53;;;;;;;3.37;1.30;;;22.70;28.10;;;;;;5031395;28;20775;-54
2021/04/06 06:04:19;;;;;;;4.20;1.40;;;22.70;28.00;;;;;;5032961;28;20643;-54
2021/04/06 06:06:45;;;;;;;2.50;1.20;;;22.70;28.00;;;;;;5032541;28;20213;-55
2021/04/06 06:09:12;;;;;;;2.30;1.30;;;22.70;27.90;;;;;;5033197;28;20545;-54
2021/04/06 06:11:38;;;;;;;1.90;1.30;;;22.70;27.90;;;;;;5030942;28;20234;-54
2021/04/06 06:14:04;;;;;;;1.27;1.10;;;22.60;27.70;;;;;;5031530;28;20255;-55
2021/04/06 06:16:31;;;;;;;1.53;1.20;;;22.70;27.80;;;;;;5031789;28;20209;-56
2021/04/06 06:18:57;;;;;;;1.37;1.27;;;22.60;27.70;;;;;;5032724;28;20206;-57
2021/04/06 06:21:23;;;;;;;1.10;1.10;;;22.70;27.80;;;;;;5030190;28;20205;-55
2021/04/06 06:23:49;;;;;;;2.07;1.00;;;22.70;27.80;;;;;;5032517;28;20209;-55
2021/04/06 06:26:15;;;;;;;2.50;1.33;;;22.70;27.90;;;;;;5030762;28;20610;-53
2021/04/06 06:28:41;;;;;;;1.53;1.03;;;22.70;27.80;;;;;;5032345;28;20217;-54
2021/04/06 06:31:07;;;;;;;1.83;1.20;;;22.70;27.90;;;;;;5029588;28;20230;-53
2021/04/06 06:33:34;;;;;;;2.50;1.60;;;22.70;27.90;;;;;;5031532;28;20729;-55
2021/04/06 06:36:00;;;;;;;1.43;0.97;;;22.70;27.80;;;;;;5031861;28;20212;-56
2021/04/06 06:38:26;;;;;;;1.70;1.10;;;22.70;27.80;;;;;;5031475;28;20206;-54
2021/04/06 06:40:52;;;;;;;1.10;1.00;;;22.70;27.90;;;;;;5030811;28;20615;-55
2021/04/06 06:43:18;;;;;;;1.30;1.20;;;22.70;27.80;;;;;;5031420;28;20226;-56
2021/04/06 06:45:44;;;;;;;1.73;1.57;;;22.70;27.80;;;;;;5031814;28;20259;-52
2021/04/06 06:48:10;;;;;;;1.07;0.97;;;22.70;27.80;;;;;;5030058;28;20208;-53
2021/04/06 06:50:36;;;;;;;1.20;1.10;;;22.70;27.90;;;;;;5030203;28;20655;-57
2021/04/06 06:53:02;;;;;;;1.13;1.00;;;22.70;27.80;;;;;;5031692;28;20221;-55
2021/04/06 06:55:28;;;;;;;1.20;1.10;;;22.70;27.80;;;;;;5030434;28;20205;-57
2021/04/06 06:57:54;;;;;;;1.07;1.03;;;22.70;27.80;;;;;;5032292;28;20213;-56
2021/04/06 07:00:20;;;;;;;2.53;1.10;;;22.70;27.60;;;;;;5031691;28;20566;-56
2021/04/06 07:02:46;;;;;;;2.03;1.00;;;22.70;27.60;;;;;;5029713;28;20282;-56
2021/04/06 07:05:12;;;;;;;2.07;1.20;;;22.70;27.60;;;;;;5031011;28;20206;-54
2021/04/06 07:07:38;;;;;;;1.33;1.10;;;22.70;27.60;;;;;;5030439;28;20209;-56
2021/04/06 07:10:04;;;;;;;1.90;1.30;;;22.70;27.60;;;;;;5029995;28;20210;-55
2021/04/06 07:12:30;;;;;;;1.47;1.20;;;22.70;27.60;;;;;;5029123;28;20252;-57
2021/04/06 07:14:56;;;;;;;1.40;1.30;;;22.70;27.50;;;;;;5021432;28;20199;-57
2021/04/06 07:17:21;;;;;;;2.37;1.10;;;22.70;27.60;;;;;;5027841;28;20203;-57
2021/04/06 07:19:47;;;;;;;3.47;1.20;;;22.80;27.90;;;;;;5030136;28;20228;-60
2021/04/06 07:22:13;;;;;;;2.87;1.20;;;22.80;28.00;;;;;;5026192;28;20644;-56
2021/04/06 07:24:39;;;;;;;2.50;1.10;;;22.80;27.90;;;;;;5029380;28;20248;-52
2021/04/06 07:27:05;;;;;;;3.60;1.20;;;22.90;28.20;;;;;;5029026;28;20208;-55
2021/04/06 07:29:31;;;;;;;1.70;1.13;;;22.90;28.50;;;;;;5029868;28;20609;-53
2021/04/06 07:31:57;;;;;;;1.20;1.10;;;22.90;28.80;;;;;;5025887;28;20238;-58
2021/04/06 07:36:53;;;;;;;2.10;1.30;;;22.90;30.30;;;;;;5008284;28;20222;-70
2021/04/06 07:39:19;;;;;;;4.43;1.60;;;22.90;29.90;;;;;;5011508;28;20241;-63
2021/04/06 07:41:45;;;;;;;3.38;1.50;;;22.90;31.50;;;;;;5009827;28;20234;-63
2021/04/06 07:44:11;;;;;;;4.37;1.57;;;22.90;30.70;;;;;;5010925;28;20206;-58
2021/04/06 07:46:37;;;;;;;4.33;1.67;;;22.90;31.60;;;;;;5009155;28;20202;-59
2021/04/06 07:49:03;;;;;;;4.93;2.07;;;22.90;32.20;;;;;;5010660;28;20199;-61
2021/04/06 07:51:29;;;;;;;5.50;2.13;;;22.90;32.80;;;;;;5008823;28;20701;-60
2021/04/06 07:53:55;;;;;;;8.80;2.70;;;22.90;33.50;;;;;;5010822;28;20289;-61
2021/04/06 07:56:21;;;;;;;8.80;3.13;;;22.90;33.90;;;;;;5008991;28;20207;-63
2021/04/06 07:58:47;;;;;;;7.47;2.38;;;22.80;34.40;;;;;;5010173;28;20206;-60
2021/04/06 08:01:16;;;;;;;2.83;1.70;;;19.90;25.60;;;;;;5006525;28;20230;-61
2021/04/06 08:03:42;;;;;;;3.90;1.87;;;13.60;21.20;;;;;;5010449;28;20210;-60
2021/04/06 08:06:07;;;;;;;4.33;1.73;;;14.50;28.50;;;;;;5009639;28;20209;-60
2021/04/06 08:08:33;;;;;;;5.17;1.73;;;17.50;28.10;;;;;;5010178;28;20216;-60
2021/04/06 08:10:59;;;;;;;1.77;1.17;;;19.30;27.20;;;;;;5009060;28;20217;-60
2021/04/06 08:13:25;;;;;;;3.40;1.67;;;20.40;27.00;;;;;;5004869;28;20232;-60
2021/04/06 08:15:51;;;;;;;2.53;1.33;;;21.00;26.70;;;;;;5009800;28;20219;-60
2021/04/06 08:18:17;;;;;;;3.43;1.23;;;21.40;26.90;;;;;;5010024;28;20270;-60
2021/04/06 08:20:43;;;;;;;2.30;1.20;;;21.60;27.10;;;;;;5008749;28;20215;-60
2021/04/06 08:23:09;;;;;;;3.97;1.37;;;21.80;27.20;;;;;;5010296;28;20230;-60
2021/04/06 08:25:35;;;;;;;2.67;1.40;;;22.00;27.30;;;;;;5010479;28;20205;-61
2021/04/06 08:28:01;;;;;;;4.00;1.40;;;22.10;27.40;;;;;;5004511;28;20211;-60
2021/04/06 08:30:27;;;;;;;1.93;1.30;;;22.30;28.10;;;;;;5005088;28;20243;-61
2021/04/06 08:32:53;;;;;;;2.97;1.30;;;22.40;28.50;;;;;;5008463;28;20234;-61
2021/04/06 08:35:19;;;;;;;4.03;1.20;;;22.50;28.30;;;;;;5003983;28;20220;-61
2021/04/06 08:37:46;;;;;;;2.37;1.30;;;22.50;28.60;;;;;;5009120;28;20212;-61
2021/04/06 08:40:12;;;;;;;1.90;1.20;;;22.60;28.70;;;;;;5005805;28;20225;-63
2021/04/06 08:42:38;;;;;;;2.03;1.20;;;22.60;28.80;;;;;;5010370;28;20657;-64
2021/04/06 08:45:04;;;;;;;1.87;1.33;;;22.70;29.00;;;;;;5007518;28;20209;-71
2021/04/06 08:47:30;;;;;;;2.10;1.37;;;22.70;29.10;;;;;;5005470;28;20363;-59
2021/04/06 08:49:56;;;;;;;1.43;1.10;;;22.70;29.50;;;;;;5008390;28;20648;-59
2021/04/06 08:52:22;;;;;;;2.10;1.60;;;22.70;29.30;;;;;;5006805;28;20238;-62
2021/04/06 08:54:48;;;;;;;2.30;1.20;;;22.70;29.40;;;;;;5007809;28;20207;-60
2021/04/06 08:57:14;;;;;;;2.37;1.20;;;22.80;29.90;;;;;;5009978;28;20545;-62
2021/04/06 08:59:42;;;;;;;2.10;1.10;;;22.80;29.60;;;;;;5011332;28;20207;-61
2021/04/06 09:02:09;;;;;;;2.37;1.37;;;22.70;29.60;;;;;;5007004;28;20250;-62
2021/04/06 09:04:35;;;;;;;1.60;1.50;;;22.80;29.80;;;;;;5010524;28;20639;-62
2021/04/06 09:07:01;;;;;;;1.40;1.30;;;22.80;29.60;;;;;;5012465;28;20676;-62
2021/04/06 09:09:27;;;;;;;1.97;1.20;;;22.70;28.30;;;;;;5008181;28;20207;-63
2021/04/06 09:11:53;;;;;;;1.83;1.30;;;22.70;27.90;;;;;;5010739;28;20257;-62
2021/04/06 09:14:19;;;;;;;2.60;1.10;;;22.70;28.10;;;;;;5008410;28;20660;-62
2021/04/06 09:16:45;;;;;;;1.90;1.30;;;22.70;28.80;;;;;;5009908;28;20210;-60
2021/04/06 09:19:11;;;;;;;1.20;1.10;;;22.70;28.90;;;;;;5010100;28;20199;-62
2021/04/06 09:21:37;;;;;;;1.63;1.10;;;22.70;29.00;;;;;;5005272;28;20715;-60
2021/04/06 09:24:03;;;;;;;2.03;1.20;;;22.70;29.30;;;;;;5008998;28;20203;-60
2021/04/06 09:26:29;;;;;;;2.70;1.10;;;22.70;29.30;;;;;;5006892;28;20213;-61
2021/04/06 09:28:55;;;;;;;2.73;1.20;;;22.70;29.30;;;;;;5001346;28;20617;-60
2021/04/06 09:31:21;;;;;;;2.10;1.27;;;22.80;29.30;;;;;;5002744;28;20230;-61
2021/04/06 09:33:46;;;;;;;1.83;1.13;;;22.70;29.30;;;;;;5005760;28;20211;-60
2021/04/06 09:36:12;;;;;;;1.50;1.20;;;22.70;29.40;;;;;;5008044;28;20208;-59
2021/04/06 09:38:38;;;;;;;1.60;1.03;;;22.70;29.60;;;;;;5013376;28;20206;-60
2021/04/06 09:41:04;;;;;;;2.43;1.00;;;22.70;29.80;;;;;;5009468;28;20293;-60
2021/04/06 09:43:32;;;;;;;2.17;1.20;;;22.70;30.00;;;;;;5008211;28;20203;-60
2021/04/06 09:45:58;;;;;;;1.90;1.20;;;22.70;29.80;;;;;;5007597;28;20219;-61
2021/04/06 09:48:24;;;;;;;4.28;1.20;;;22.70;29.80;;;;;;5011976;28;20203;-61
2021/04/06 09:50:50;;;;;;;1.50;1.02;;;22.70;29.60;;;;;;5009686;28;20234;-60
2021/04/06 09:53:16;;;;;;;1.93;1.00;;;22.70;29.50;;;;;;5011534;28;20721;-61
2021/04/06 09:55:42;;;;;;;2.28;1.20;;;22.70;29.40;;;;;;5009825;28;20213;-61
2021/04/06 09:58:08;;;;;;;1.50;1.00;;;22.70;29.40;;;;;;5010890;28;20203;-61
2021/04/06 10:00:35;;;;;;;2.58;1.05;;;22.80;29.40;;;;;;5007378;28;20210;-60
2021/04/06 10:03:01;;;;;;;1.57;1.17;;;22.80;29.10;;;;;;5011100;28;20257;-60
2021/04/06 10:05:27;;;;;;;3.80;1.10;;;22.80;29.20;;;;;;5000805;28;20572;-60
2021/04/06 10:07:53;;;;;;;3.40;1.57;;;22.80;29.20;;;;;;5007309;28;20239;-61
2021/04/06 10:10:19;;;;;;;1.42;1.20;;;22.80;29.00;;;;;;5012166;28;20214;-60
2021/04/06 10:12:45;;;;;;;2.88;1.05;;;22.80;28.90;;;;;;5011834;28;20273;-60
2021/04/06 10:15:11;;;;;;;1.70;1.15;;;22.80;28.90;;;;;;5009687;28;20208;-60
2021/04/06 10:17:36;;;;;;;2.13;1.30;;;22.80;29.00;;;;;;5011654;28;20210;-60
2021/04/06 10:20:04;;;;;;;1.80;1.23;;;22.80;29.00;;;;;;5009571;28;20221;-60
2021/04/06 10:22:30;;;;;;;2.67;1.40;;;22.80;29.00;;;;;;5010239;28;20262;-60
2021/04/06 10:24:56;;;;;;;1.67;1.23;;;22.70;28.80;;;;;;5011399;28;20210;-60
2021/04/06 10:27:22;;;;;;;1.70;1.17;;;22.80;29.00;;;;;;4996538;28;20203;-60
2021/04/06 10:29:48;;;;;;;2.63;1.17;;;22.80;28.90;;;;;;5005331;28;20523;-64
2021/04/06 10:32:14;;;;;;;1.70;1.40;;;22.80;28.90;;;;;;5001239;28;20243;-61
2021/04/06 10:34:40;;;;;;;1.10;1.00;;;22.80;29.40;;;;;;5005548;28;20246;-61
2021/04/06 10:37:07;;;;;;;3.22;1.20;;;22.80;29.00;;;;;;5003345;28;20789;-66
2021/04/06 10:39:33;;;;;;;3.45;1.20;;;22.80;28.90;;;;;;5011429;28;20613;-62
2021/04/06 10:41:59;;;;;;;1.73;1.10;;;22.80;29.00;;;;;;5008507;28;20230;-60
2021/04/06 10:44:25;;;;;;;4.00;1.60;;;22.80;29.00;;;;;;5005011;28;20199;-63
2021/04/06 10:46:51;;;;;;;3.57;1.70;;;22.80;29.20;;;;;;5009457;28;20337;-62
2021/04/06 10:49:17;;;;;;;1.85;1.00;;;22.80;29.30;;;;;;5001976;28;20676;-61
2021/04/06 10:51:43;;;;;;;1.93;1.20;;;22.80;29.10;;;;;;4993688;28;20231;-61
2021/04/06 10:54:09;;;;;;;2.43;1.00;;;22.80;29.10;;;;;;5000768;28;20204;-61
2021/04/06 10:56:35;;;;;;;1.93;1.10;;;22.80;29.00;;;;;;5005233;28;20818;-60
2021/04/06 10:59:01;;;;;;;2.13;1.48;;;22.80;29.20;;;;;;5006022;28;20203;-61
2021/04/06 11:01:27;;;;;;;1.98;1.35;;;22.80;29.20;;;;;;5004946;28;20307;-60
2021/04/06 11:03:53;;;;;;;2.92;1.13;;;22.80;29.20;;;;;;5009134;28;20761;-59
2021/04/06 11:06:19;;;;;;;5.07;1.80;;;22.80;29.20;;;;;;5007107;28;20234;-59
2021/04/06 11:08:45;;;;;;;10.40;2.80;;;22.80;29.30;;;;;;5000997;28;20217;-59
2021/04/06 11:11:11;;;;;;;11.73;3.70;;;22.80;29.40;;;;;;5003180;28;20235;-58
2021/04/06 11:13:37;;;;;;;8.60;3.28;;;22.90;29.50;;;;;;5006473;28;20209;-61
2021/04/06 11:16:03;;;;;;;12.13;4.22;;;22.90;29.40;;;;;;5009301;28;20214;-62
2021/04/06 11:18:29;;;;;;;14.60;3.92;;;23.00;29.90;;;;;;5009373;28;20565;-59
2021/04/06 11:20:55;;;;;;;8.98;3.53;;;23.00;29.70;;;;;;4995766;28;20235;-60
2021/04/06 11:23:21;;;;;;;9.40;3.45;;;23.00;29.50;;;;;;5005896;28;20233;-60
2021/04/06 11:25:47;;;;;;;8.80;2.97;;;23.00;29.30;;;;;;4996405;28;20203;-60
2021/04/06 11:28:13;;;;;;;9.70;3.22;;;23.00;29.90;;;;;;4998301;28;20295;-63
2021/04/06 11:30:40;;;;;;;7.18;3.10;;;23.10;29.60;;;;;;5003820;28;20780;-64
2021/04/06 11:33:06;;;;;;;10.43;3.40;;;23.10;29.60;;;;;;5007079;28;20210;-60
2021/04/06 11:35:32;;;;;;;8.15;3.08;;;23.10;30.00;;;;;;4999040;28;20288;-59
2021/04/06 11:37:58;;;;;;;10.67;3.97;;;23.10;29.70;;;;;;5007127;28;20300;-61
2021/04/06 11:40:24;;;;;;;12.23;4.97;;;23.10;30.00;;;;;;5005590;28;20303;-64
2021/04/06 11:42:50;;;;;;;8.80;3.20;;;23.10;30.70;;;;;;5008799;28;20203;-59
2021/04/06 11:45:16;;;;;;;6.88;2.97;;;23.10;30.30;;;;;;4999142;28;20254;-59
2021/04/06 11:47:42;;;;;;;8.93;3.05;;;23.10;30.40;;;;;;4994543;28;20208;-62
2021/04/06 11:50:08;;;;;;;9.85;3.03;;;23.10;30.50;;;;;;4998310;28;20226;-62
2021/04/06 11:52:34;;;;;;;8.23;3.92;;;23.10;31.30;;;;;;5001945;28;20227;-61
2021/04/06 11:55:00;;;;;;;9.90;3.65;;;23.10;31.30;;;;;;5006398;28;20202;-61
2021/04/06 11:57:26;;;;;;;9.57;3.22;;;23.00;32.10;;;;;;5001651;28;20289;-62
2021/04/06 11:59:52;;;;;;;11.20;4.07;;;23.00;31.90;;;;;;5010547;28;20202;-62
2021/04/06 12:02:18;;;;;;;11.30;4.20;;;23.00;31.80;;;;;;5000641;28;20679;-61
2021/04/06 12:04:44;;;;;;;8.32;3.15;;;23.00;32.30;;;;;;5010010;28;20199;-63
2021/04/06 12:07:10;;;;;;;9.88;3.83;;;23.00;32.30;;;;;;5000449;28;20683;-62
2021/04/06 12:09:36;;;;;;;11.02;3.50;;;22.90;32.20;;;;;;5007369;28;20207;-62
2021/04/06 12:12:02;;;;;;;10.30;3.67;;;22.90;31.60;;;;;;5008055;28;20233;-63
2021/04/06 12:14:28;;;;;;;8.07;3.40;;;22.90;31.60;;;;;;5008866;28;20218;-63
2021/04/06 12:16:54;;;;;;;7.47;3.42;;;22.90;31.20;;;;;;5010526;28;20195;-61
2021/04/06 12:19:20;;;;;;;7.32;3.63;;;22.90;31.50;;;;;;5003424;28;20237;-61
2021/04/06 12:21:46;;;;;;;6.90;3.38;;;22.90;31.30;;;;;;5006207;28;20265;-61
2021/04/06 12:24:12;;;;;;;8.70;3.30;;;22.90;30.90;;;;;;5009460;28;20306;-62
2021/04/06 12:26:38;;;;;;;7.90;2.83;;;22.90;30.80;;;;;;5006822;28;20204;-61
2021/04/06 12:29:04;;;;;;;11.10;3.67;;;22.90;30.80;;;;;;5003970;28;20604;-62
2021/04/06 12:31:30;;;;;;;7.00;3.10;;;22.90;30.70;;;;;;5000879;28;20238;-61
2021/04/06 12:33:56;;;;;;;4.53;2.47;;;22.90;30.60;;;;;;4997623;28;20207;-61
2021/04/06 12:36:22;;;;;;;7.30;3.00;;;22.90;30.40;;;;;;4997888;28;20584;-61
2021/04/06 12:38:48;;;;;;;9.95;3.25;;;22.90;30.30;;;;;;5008772;28;20236;-62
2021/04/06 12:41:14;;;;;;;8.35;2.83;;;22.90;30.20;;;;;;5012162;28;20674;-62